Time;durP1;ratioP1;P1;durP2;ratioP2;P2;SDS_P1;SDS_P2;PMS_P1;PMS_P2;Temp;Humidity;BMP_temperature;BMP_pressure;BME280_temperature;BME280_humidity;BME280_pressure;Samples;Min_cycle;Max_cycle;Signal;HPM_P1;HPM_P2
2022/07/26 00:01:24;;;;;;;11.18;6.03;;;29.60;76.40;;;;;;5071705;28;20619;-69
2022/07/26 00:03:51;;;;;;;14.80;6.03;;;29.60;76.80;;;;;;5071982;28;20024;-71
2022/07/26 00:06:17;;;;;;;12.13;5.95;;;29.60;76.90;;;;;;5071963;28;20020;-69
2022/07/26 00:08:43;;;;;;;12.73;6.40;;;29.50;76.50;;;;;;5071770;28;20485;-70
2022/07/26 00:11:09;;;;;;;10.70;6.05;;;29.50;76.70;;;;;;5072210;28;20029;-70
2022/07/26 00:13:35;;;;;;;11.57;5.80;;;29.40;76.60;;;;;;5072535;28;20024;-70
2022/07/26 00:16:01;;;;;;;8.48;5.68;;;29.40;76.20;;;;;;5071305;28;20052;-71
2022/07/26 00:18:27;;;;;;;9.95;5.88;;;29.40;76.50;;;;;;5071622;28;20157;-69
2022/07/26 00:20:53;;;;;;;10.50;5.85;;;29.40;76.50;;;;;;5071541;28;20104;-70
2022/07/26 00:23:19;;;;;;;12.23;5.85;;;29.40;76.40;;;;;;5071952;28;20036;-71
2022/07/26 00:25:45;;;;;;;9.20;5.90;;;29.30;76.10;;;;;;5071276;28;20025;-70
2022/07/26 00:28:12;;;;;;;28.63;18.52;;;29.40;76.10;;;;;;5071921;28;20040;-71
2022/07/26 00:30:38;;;;;;;16.45;10.20;;;29.30;76.00;;;;;;5071429;28;20052;-70
2022/07/26 00:33:05;;;;;;;12.88;6.47;;;29.30;75.40;;;;;;5071921;28;20129;-70
2022/07/26 00:35:31;;;;;;;10.30;5.97;;;29.30;74.80;;;;;;5054615;28;20074;-69
2022/07/26 00:37:57;;;;;;;9.77;5.85;;;29.30;75.30;;;;;;5072698;28;20032;-70
2022/07/26 00:40:23;;;;;;;8.25;5.20;;;29.20;76.00;;;;;;5072941;28;20086;-70
2022/07/26 00:42:49;;;;;;;11.55;6.05;;;29.20;75.00;;;;;;5072588;28;20021;-70
2022/07/26 00:45:16;;;;;;;11.82;6.30;;;29.20;75.10;;;;;;5054914;28;20021;-70
2022/07/26 00:47:42;;;;;;;10.45;5.88;;;29.30;75.40;;;;;;5073079;28;20457;-69
2022/07/26 00:50:12;;;;;;;16.83;6.32;;;29.30;75.50;;;;;;5072750;28;20090;-70
2022/07/26 00:52:41;;;;;;;11.82;5.75;;;29.30;75.70;;;;;;5072806;28;20443;-69
2022/07/26 00:55:07;;;;;;;14.23;5.55;;;29.30;75.80;;;;;;5072485;28;20043;-70
2022/07/26 00:57:34;;;;;;;16.25;6.07;;;29.30;75.30;;;;;;5072328;28;20049;-69
2022/07/26 01:00:05;;;;;;;10.93;5.60;;;29.30;75.00;;;;;;5072614;28;20078;-69
2022/07/26 01:02:30;;;;;;;10.75;5.65;;;29.30;75.30;;;;;;5072472;28;20036;-69
2022/07/26 01:04:56;;;;;;;9.15;6.22;;;29.30;74.00;;;;;;5072257;28;20531;-70
2022/07/26 01:07:23;;;;;;;12.60;6.10;;;29.40;74.80;;;;;;5072403;28;20607;-70
2022/07/26 01:09:49;;;;;;;11.73;6.55;;;29.40;74.80;;;;;;5072646;28;20040;-69
2022/07/26 01:12:15;;;;;;;8.98;5.85;;;29.40;75.70;;;;;;5072578;28;20025;-70
2022/07/26 01:14:46;;;;;;;13.68;6.03;;;29.30;74.70;;;;;;5072545;28;20031;-70
2022/07/26 01:17:13;;;;;;;9.88;6.25;;;29.40;75.40;;;;;;5072454;28;20059;-69
2022/07/26 01:19:39;;;;;;;10.77;6.20;;;29.30;76.10;;;;;;5073360;28;20021;-71
2022/07/26 01:22:05;;;;;;;11.32;6.82;;;29.30;76.20;;;;;;5074174;28;20040;-69
2022/07/26 01:24:32;;;;;;;9.27;6.05;;;29.20;76.50;;;;;;5072407;28;20029;-69
2022/07/26 01:26:57;;;;;;;9.80;6.28;;;29.20;76.60;;;;;;5072327;28;20119;-69
2022/07/26 01:29:23;;;;;;;10.95;6.30;;;29.20;76.10;;;;;;5072327;28;20032;-69
2022/07/26 01:31:50;;;;;;;12.18;6.15;;;29.20;75.80;;;;;;5072333;28;20035;-70
2022/07/26 01:34:16;;;;;;;9.93;6.93;;;29.20;76.80;;;;;;5072306;28;20021;-69
2022/07/26 01:36:42;;;;;;;9.50;5.65;;;29.20;76.40;;;;;;5072112;28;20495;-70
2022/07/26 01:39:08;;;;;;;11.95;6.45;;;29.20;76.30;;;;;;5072311;28;20028;-68
2022/07/26 01:41:33;;;;;;;10.38;6.20;;;29.20;77.20;;;;;;5072158;28;20512;-68
2022/07/26 01:43:59;;;;;;;13.13;6.85;;;29.10;77.20;;;;;;5072191;28;20024;-69
2022/07/26 01:46:25;;;;;;;11.40;7.38;;;29.10;77.50;;;;;;5071998;28;20020;-69
2022/07/26 01:48:51;;;;;;;12.57;7.03;;;29.10;78.10;;;;;;5072114;28;20416;-70
2022/07/26 01:51:17;;;;;;;12.90;6.55;;;29.00;78.50;;;;;;5072035;28;20028;-70
2022/07/26 01:53:46;;;;;;;14.20;6.78;;;29.00;78.60;;;;;;5073084;28;20024;-69
2022/07/26 01:56:13;;;;;;;10.48;6.45;;;28.90;78.20;;;;;;5075323;28;20162;-69
2022/07/26 01:58:39;;;;;;;14.00;6.75;;;28.90;79.20;;;;;;5075557;28;20109;-69
2022/07/26 02:01:06;;;;;;;15.32;7.15;;;28.90;79.20;;;;;;5075438;28;20037;-69
2022/07/26 02:03:32;;;;;;;13.23;7.03;;;28.80;79.70;;;;;;5075500;28;20027;-69
2022/07/26 02:05:57;;;;;;;11.70;6.65;;;28.80;79.80;;;;;;5075393;28;20099;-70
2022/07/26 02:08:23;;;;;;;9.40;6.20;;;28.70;79.90;;;;;;5075369;28;20020;-70
2022/07/26 02:10:59;;;;;;;12.77;7.15;;;28.70;80.60;;;;;;5075356;28;20028;-69
2022/07/26 02:13:37;;;;;;;12.23;7.13;;;28.70;80.20;;;;;;5057102;28;20029;-71
2022/07/26 02:16:05;;;;;;;11.77;6.90;;;28.70;80.00;;;;;;5075056;28;20024;-70
2022/07/26 02:18:31;;;;;;;13.25;6.93;;;28.60;79.80;;;;;;5075102;28;20020;-69
2022/07/26 02:20:58;;;;;;;11.93;6.55;;;28.60;80.40;;;;;;5075009;28;20446;-69
2022/07/26 02:23:25;;;;;;;17.02;6.82;;;28.60;80.40;;;;;;5075197;28;20028;-70
2022/07/26 02:25:51;;;;;;;9.10;6.15;;;28.60;80.40;;;;;;5074836;28;20039;-70
2022/07/26 02:28:17;;;;;;;10.38;6.85;;;28.50;80.90;;;;;;5074843;28;20089;-70
2022/07/26 02:30:45;;;;;;;10.65;6.47;;;28.50;80.60;;;;;;5074975;28;20033;-69
2022/07/26 02:33:11;;;;;;;10.23;6.18;;;28.60;80.80;;;;;;5056764;28;20046;-71
2022/07/26 02:35:37;;;;;;;11.95;6.90;;;28.50;80.50;;;;;;5074809;28;20466;-69
2022/07/26 02:38:08;;;;;;;12.07;6.70;;;28.50;79.50;;;;;;5074929;28;20108;-69
2022/07/26 02:40:35;;;;;;;12.20;6.32;;;28.60;78.70;;;;;;5074631;28;20059;-69
2022/07/26 02:43:02;;;;;;;9.88;6.78;;;28.60;78.00;;;;;;5074813;28;20041;-70
2022/07/26 02:45:28;;;;;;;10.85;6.07;;;28.60;76.30;;;;;;5074475;28;20024;-70
2022/07/26 02:47:54;;;;;;;10.98;6.32;;;28.70;75.40;;;;;;5074552;28;20466;-71
2022/07/26 02:50:23;;;;;;;10.48;6.32;;;28.70;74.50;;;;;;5074418;28;20429;-72
2022/07/26 02:52:50;;;;;;;14.82;6.95;;;28.70;73.90;;;;;;5074241;28;20031;-70
2022/07/26 02:55:17;;;;;;;11.68;6.95;;;28.70;73.10;;;;;;5074126;28;20033;-69
2022/07/26 02:57:43;;;;;;;10.02;6.22;;;28.60;72.20;;;;;;5074187;28;20049;-69
2022/07/26 03:00:11;;;;;;;10.93;6.45;;;28.60;72.00;;;;;;5074297;28;20027;-69
2022/07/26 03:02:37;;;;;;;9.38;6.75;;;28.60;72.30;;;;;;5074151;28;20048;-70
2022/07/26 03:05:05;;;;;;;12.43;7.50;;;28.50;72.80;;;;;;5074045;28;20027;-70
2022/07/26 03:07:31;;;;;;;11.70;7.22;;;28.50;73.90;;;;;;5074233;28;20028;-70
2022/07/26 03:09:57;;;;;;;11.15;7.13;;;28.50;74.30;;;;;;5074089;28;20024;-71
2022/07/26 03:12:23;;;;;;;13.25;7.20;;;28.50;74.60;;;;;;5074061;28;20104;-69
2022/07/26 03:14:48;;;;;;;11.48;7.15;;;28.40;75.20;;;;;;5073930;28;20056;-70
2022/07/26 03:17:14;;;;;;;11.60;7.13;;;28.40;75.50;;;;;;5074005;28;20078;-69
2022/07/26 03:19:40;;;;;;;15.23;7.47;;;28.40;75.70;;;;;;5073825;28;20031;-72
2022/07/26 03:22:06;;;;;;;16.02;7.70;;;28.40;76.30;;;;;;5073605;28;20032;-69
2022/07/26 03:24:31;;;;;;;10.50;7.45;;;28.40;77.00;;;;;;5073664;28;20104;-70
2022/07/26 03:26:57;;;;;;;11.30;7.90;;;28.50;77.90;;;;;;5073721;28;20024;-70
2022/07/26 03:29:23;;;;;;;14.10;7.95;;;28.50;78.60;;;;;;5073609;28;20428;-69
2022/07/26 03:31:50;;;;;;;9.38;7.03;;;28.50;79.50;;;;;;5073534;28;20021;-71
2022/07/26 03:34:16;;;;;;;13.57;8.10;;;28.50;80.00;;;;;;5073562;28;20051;-69
2022/07/26 03:36:45;;;;;;;17.58;8.60;;;28.50;80.30;;;;;;5073356;28;20056;-70
2022/07/26 03:39:11;;;;;;;12.23;8.80;;;28.50;80.60;;;;;;5073388;28;20021;-71
2022/07/26 03:41:37;;;;;;;13.07;8.20;;;28.40;81.20;;;;;;5073395;28;20039;-70
2022/07/26 03:44:03;;;;;;;13.15;8.05;;;28.40;81.80;;;;;;5073595;28;20029;-70
2022/07/26 03:46:29;;;;;;;13.10;8.65;;;28.30;82.20;;;;;;5073332;28;20020;-71
2022/07/26 03:48:55;;;;;;;14.05;8.60;;;28.30;82.40;;;;;;5073362;28;20063;-69
2022/07/26 03:51:20;;;;;;;12.38;7.70;;;28.30;82.80;;;;;;5073212;28;20028;-70
2022/07/26 03:53:46;;;;;;;13.48;7.72;;;28.20;82.60;;;;;;5073145;28;20051;-70
2022/07/26 03:59:01;;;;;;;13.35;8.65;;;28.20;83.60;;;;;;5073185;28;20087;-69
2022/07/26 04:01:28;;;;;;;15.85;7.63;;;28.20;83.00;;;;;;5073168;28;20039;-71
2022/07/26 04:03:54;;;;;;;12.82;8.13;;;28.20;83.40;;;;;;5073083;28;20028;-69
2022/07/26 04:06:20;;;;;;;11.10;7.55;;;28.20;83.90;;;;;;5073054;28;20024;-70
2022/07/26 04:08:46;;;;;;;13.30;8.70;;;28.30;83.10;;;;;;5073042;28;20033;-69
2022/07/26 04:11:11;;;;;;;12.77;8.70;;;28.20;83.40;;;;;;5072970;28;20094;-69
2022/07/26 04:13:37;;;;;;;23.40;8.57;;;28.20;83.90;;;;;;5072782;28;20039;-70
2022/07/26 04:16:03;;;;;;;16.00;8.90;;;28.20;84.20;;;;;;5072400;28;20028;-69
2022/07/26 04:18:29;;;;;;;14.63;9.60;;;28.20;84.70;;;;;;5072723;28;20029;-68
2022/07/26 04:20:55;;;;;;;15.45;9.05;;;28.20;85.10;;;;;;5072841;28;20086;-70
2022/07/26 04:23:21;;;;;;;16.77;9.45;;;28.20;85.40;;;;;;5072789;28;20078;-69
2022/07/26 04:25:46;;;;;;;12.00;8.73;;;28.20;85.50;;;;;;5072737;28;20023;-70
2022/07/26 04:28:12;;;;;;;15.23;8.07;;;28.20;85.60;;;;;;5072597;28;20413;-71
2022/07/26 04:30:39;;;;;;;12.48;8.20;;;28.20;85.10;;;;;;5072429;28;20032;-69
2022/07/26 04:33:05;;;;;;;17.13;9.20;;;28.20;85.20;;;;;;5072419;28;20140;-70
2022/07/26 04:35:32;;;;;;;15.40;8.10;;;28.20;85.60;;;;;;5072544;28;20096;-68
2022/07/26 04:37:58;;;;;;;13.45;8.48;;;28.20;85.50;;;;;;5072644;28;20032;-69
2022/07/26 04:40:26;;;;;;;12.60;8.20;;;28.30;85.10;;;;;;5072716;28;20025;-71
2022/07/26 04:42:52;;;;;;;11.88;8.68;;;28.30;85.10;;;;;;5072553;28;20497;-70
2022/07/26 04:45:18;;;;;;;14.63;7.68;;;28.40;84.80;;;;;;5072253;28;20025;-69
2022/07/26 04:47:49;;;;;;;13.18;8.13;;;28.40;84.20;;;;;;5072504;28;20028;-69
2022/07/26 04:50:17;;;;;;;16.60;7.90;;;28.40;84.10;;;;;;5072626;28;20028;-69
2022/07/26 04:52:43;;;;;;;14.13;8.05;;;28.40;84.30;;;;;;5072298;28;20035;-70
2022/07/26 04:55:09;;;;;;;13.65;7.90;;;28.50;84.40;;;;;;5072362;28;20389;-70
2022/07/26 04:57:35;;;;;;;14.68;7.68;;;28.50;83.90;;;;;;5072197;28;20045;-69
2022/07/26 05:00:02;;;;;;;11.13;7.10;;;28.60;83.50;;;;;;5072410;28;20106;-71
2022/07/26 05:02:28;;;;;;;13.55;7.55;;;28.60;83.00;;;;;;5072288;28;20033;-70
2022/07/26 05:04:54;;;;;;;12.35;7.07;;;28.60;82.60;;;;;;5072345;28;20032;-71
2022/07/26 05:07:19;;;;;;;11.80;6.88;;;28.60;82.50;;;;;;5072374;28;20070;-70
2022/07/26 05:09:45;;;;;;;11.38;6.68;;;28.60;81.60;;;;;;5072344;28;20060;-68
2022/07/26 05:12:11;;;;;;;12.48;6.65;;;28.60;80.40;;;;;;5072289;28;20435;-69
2022/07/26 05:14:36;;;;;;;10.93;6.57;;;28.60;79.70;;;;;;5072105;28;20530;-69
2022/07/26 05:17:03;;;;;;;12.82;6.75;;;28.70;79.40;;;;;;5071804;28;20103;-70
2022/07/26 05:19:29;;;;;;;11.32;6.55;;;28.80;78.50;;;;;;5071959;28;20075;-69
2022/07/26 05:21:54;;;;;;;11.77;6.88;;;28.90;77.90;;;;;;5071903;28;20450;-69
2022/07/26 05:24:20;;;;;;;18.67;7.03;;;29.10;77.20;;;;;;5072096;28;20327;-69
2022/07/26 05:26:46;;;;;;;18.98;6.70;;;29.30;76.50;;;;;;5072007;28;20105;-69
2022/07/26 05:29:12;;;;;;;13.60;6.15;;;29.50;75.80;;;;;;5073984;28;20531;-71
2022/07/26 05:31:37;;;;;;;11.57;6.60;;;29.80;74.90;;;;;;5075823;28;20024;-70
2022/07/26 05:34:03;;;;;;;14.18;6.50;;;30.10;74.50;;;;;;5075593;28;20024;-69
2022/07/26 05:36:29;;;;;;;11.77;6.68;;;30.40;73.70;;;;;;5075816;28;20107;-69
2022/07/26 05:38:55;;;;;;;13.77;6.35;;;30.70;73.30;;;;;;5075675;28;20024;-70
2022/07/26 05:41:21;;;;;;;14.05;6.57;;;31.00;72.50;;;;;;5075568;28;20025;-71
2022/07/26 05:43:46;;;;;;;12.45;6.40;;;31.30;71.70;;;;;;5062817;28;20116;-72
2022/07/26 05:46:14;;;;;;;11.82;6.32;;;31.40;71.10;;;;;;5075307;28;20025;-71
2022/07/26 05:48:41;;;;;;;11.35;5.82;;;31.50;70.60;;;;;;5075349;28;20035;-72
2022/07/26 05:51:08;;;;;;;13.02;7.20;;;31.70;69.70;;;;;;5075407;28;20040;-71
2022/07/26 05:53:35;;;;;;;13.70;6.60;;;31.80;69.00;;;;;;5075303;28;20070;-72
2022/07/26 05:56:00;;;;;;;18.25;6.78;;;31.90;68.50;;;;;;5075248;28;20120;-72
2022/07/26 05:58:26;;;;;;;15.35;6.40;;;32.10;67.70;;;;;;5075206;28;20056;-71
2022/07/26 06:00:52;;;;;;;13.52;6.50;;;32.20;67.70;;;;;;5075020;28;20119;-73
2022/07/26 06:03:21;;;;;;;21.60;6.88;;;32.30;66.90;;;;;;5075306;28;20068;-72
2022/07/26 06:05:51;;;;;;;20.10;7.65;;;32.10;67.30;;;;;;5075118;28;20043;-75
2022/07/26 06:08:17;;;;;;;13.05;6.70;;;32.00;68.10;;;;;;5074882;28;20028;-71
2022/07/26 06:10:44;;;;;;;15.57;6.78;;;32.10;68.50;;;;;;5074973;28;20025;-73
2022/07/26 06:13:10;;;;;;;10.57;6.35;;;32.30;68.40;;;;;;5068793;28;20033;-73
2022/07/26 06:15:37;;;;;;;15.52;6.90;;;32.40;67.50;;;;;;5053609;28;20072;-70
2022/07/26 06:18:06;;;;;;;16.48;7.00;;;32.60;67.30;;;;;;5065868;28;20071;-70
2022/07/26 06:20:32;;;;;;;14.93;6.32;;;32.70;67.30;;;;;;5072114;28;20351;-71
2022/07/26 06:22:58;;;;;;;18.45;6.80;;;32.70;67.40;;;;;;5071389;28;20041;-71
2022/07/26 06:25:25;;;;;;;13.50;6.97;;;32.90;67.50;;;;;;5063504;28;20113;-69
2022/07/26 06:27:51;;;;;;;12.95;6.07;;;33.10;67.10;;;;;;5065247;28;20016;-68
2022/07/26 06:30:17;;;;;;;10.40;5.70;;;33.00;66.90;;;;;;5055782;28;20048;-69
2022/07/26 06:32:43;;;;;;;15.82;6.57;;;32.90;67.40;;;;;;5074653;28;20020;-69
2022/07/26 06:35:13;;;;;;;14.75;6.22;;;32.90;67.90;;;;;;5067663;28;20025;-72
2022/07/26 06:37:41;;;;;;;15.43;6.57;;;32.90;67.70;;;;;;5064072;28;20144;-70
2022/07/26 06:40:08;;;;;;;21.40;7.60;;;32.80;68.30;;;;;;5069844;28;20103;-69
2022/07/26 06:42:35;;;;;;;13.57;6.63;;;32.80;68.40;;;;;;5066348;28;20049;-69
2022/07/26 06:45:02;;;;;;;18.42;6.13;;;32.90;67.70;;;;;;5054149;28;20549;-69
2022/07/26 06:47:28;;;;;;;10.25;6.38;;;33.20;67.70;;;;;;5054049;28;20033;-74
2022/07/26 06:49:53;;;;;;;13.05;6.45;;;33.20;67.40;;;;;;5054498;28;20075;-73
2022/07/26 06:52:19;;;;;;;14.30;6.20;;;33.30;67.10;;;;;;5054536;28;20029;-73
2022/07/26 06:54:45;;;;;;;18.55;6.28;;;33.50;66.80;;;;;;5052783;28;20076;-70
2022/07/26 06:57:11;;;;;;;16.73;6.22;;;33.50;66.00;;;;;;5052475;28;20113;-70
2022/07/26 06:59:37;;;;;;;11.13;6.18;;;33.40;65.70;;;;;;5054021;28;20037;-69
2022/07/26 07:02:03;;;;;;;18.08;6.32;;;33.10;66.80;;;;;;5052574;28;20065;-70
2022/07/26 07:04:31;;;;;;;18.10;7.13;;;32.90;66.10;;;;;;5054073;28;20389;-69
2022/07/26 07:07:01;;;;;;;14.55;6.70;;;32.80;67.80;;;;;;5054039;28;20028;-70
2022/07/26 07:09:28;;;;;;;18.60;7.43;;;32.70;68.00;;;;;;5053734;28;20028;-71
2022/07/26 07:11:54;;;;;;;17.77;7.00;;;32.60;68.20;;;;;;5054133;28;20024;-67
2022/07/26 07:14:19;;;;;;;12.48;5.72;;;32.40;68.50;;;;;;5053903;28;20363;-68
2022/07/26 07:16:45;;;;;;;11.35;5.82;;;32.50;66.90;;;;;;5059091;28;20036;-67
2022/07/26 07:19:11;;;;;;;8.98;5.38;;;32.60;65.80;;;;;;5073609;28;20028;-69
2022/07/26 07:21:38;;;;;;;10.02;5.22;;;32.80;66.20;;;;;;5073256;28;20031;-71
2022/07/26 07:24:04;;;;;;;15.32;6.85;;;32.90;64.70;;;;;;5073165;28;20473;-68
2022/07/26 07:26:30;;;;;;;11.32;5.28;;;33.00;64.50;;;;;;5073322;28;20077;-69
2022/07/26 07:28:56;;;;;;;10.20;5.55;;;33.00;64.20;;;;;;5055271;28;20035;-68
2022/07/26 07:31:23;;;;;;;18.60;7.70;;;33.10;63.70;;;;;;5073351;28;20024;-68
2022/07/26 07:33:49;;;;;;;12.93;6.18;;;33.20;63.10;;;;;;5073330;28;20016;-69
2022/07/26 07:36:14;;;;;;;9.73;5.93;;;33.30;62.40;;;;;;5073203;28;20024;-69
2022/07/26 07:38:40;;;;;;;11.00;5.43;;;33.40;62.20;;;;;;5073299;28;20327;-68
2022/07/26 07:41:06;;;;;;;11.70;5.43;;;33.60;61.80;;;;;;5072977;28;20426;-69
2022/07/26 07:43:31;;;;;;;10.70;5.50;;;33.70;61.30;;;;;;5073338;28;20044;-69
2022/07/26 07:46:00;;;;;;;18.50;5.47;;;33.80;60.80;;;;;;5073424;28;20021;-75
2022/07/26 07:48:25;;;;;;;18.60;7.13;;;33.90;59.50;;;;;;5073467;28;20127;-68
2022/07/26 07:50:51;;;;;;;19.25;7.40;;;34.00;60.60;;;;;;5072829;28;20107;-68
2022/07/26 07:53:17;;;;;;;18.98;8.70;;;34.10;59.80;;;;;;5072807;28;20021;-69
2022/07/26 07:55:42;;;;;;;12.02;6.10;;;34.20;59.20;;;;;;5072747;28;20472;-68
2022/07/26 07:58:09;;;;;;;9.57;5.43;;;34.20;59.30;;;;;;5072946;28;20036;-76
2022/07/26 08:00:34;;;;;;;10.85;5.90;;;34.20;59.50;;;;;;5072631;28;20479;-71
2022/07/26 08:03:00;;;;;;;16.33;7.35;;;34.00;60.20;;;;;;5072791;28;20032;-69
2022/07/26 08:05:26;;;;;;;13.07;6.30;;;33.90;60.10;;;;;;5072591;28;20074;-71
2022/07/26 08:07:51;;;;;;;11.20;6.10;;;33.90;60.20;;;;;;5072712;28;20020;-73
2022/07/26 08:10:18;;;;;;;15.45;6.80;;;33.90;60.50;;;;;;5072552;28;20016;-68
2022/07/26 08:12:44;;;;;;;16.30;6.85;;;33.70;60.20;;;;;;5072749;28;20028;-68
2022/07/26 08:15:10;;;;;;;14.32;5.85;;;33.70;60.40;;;;;;5072965;28;20381;-74
2022/07/26 08:17:36;;;;;;;12.43;5.50;;;33.70;60.10;;;;;;5072664;28;20028;-78
2022/07/26 08:20:03;;;;;;;11.75;5.63;;;33.60;59.60;;;;;;5072487;28;20104;-69
2022/07/26 08:22:28;;;;;;;16.40;7.32;;;33.60;58.60;;;;;;5072435;28;20032;-70
2022/07/26 08:24:54;;;;;;;17.17;7.38;;;33.60;58.40;;;;;;5072394;28;20020;-68
2022/07/26 08:27:20;;;;;;;10.55;6.25;;;33.60;58.10;;;;;;5072392;28;20426;-70
2022/07/26 08:29:45;;;;;;;16.20;5.82;;;33.70;58.00;;;;;;5072571;28;20020;-78
2022/07/26 08:32:11;;;;;;;16.15;5.97;;;33.70;57.80;;;;;;5072404;28;20040;-69
2022/07/26 08:34:37;;;;;;;19.23;7.40;;;33.60;57.70;;;;;;5072345;28;20507;-75
2022/07/26 08:37:03;;;;;;;19.08;8.00;;;33.70;57.90;;;;;;5072482;28;20042;-73
2022/07/26 08:39:28;;;;;;;21.15;6.13;;;33.70;57.60;;;;;;5072130;28;20107;-71
2022/07/26 08:41:54;;;;;;;20.02;7.20;;;33.70;57.50;;;;;;5072654;28;20083;-75
2022/07/26 08:44:20;;;;;;;11.57;6.35;;;33.70;57.20;;;;;;5072262;28;20077;-71
2022/07/26 08:46:45;;;;;;;9.63;5.35;;;33.60;56.40;;;;;;5072018;28;20028;-70
2022/07/26 08:49:13;;;;;;;13.85;6.03;;;33.60;56.50;;;;;;5072136;28;20025;-71
2022/07/26 08:51:42;;;;;;;17.95;8.27;;;33.60;56.70;;;;;;5054163;28;20084;-72
2022/07/26 08:54:10;;;;;;;12.52;5.28;;;33.50;56.50;;;;;;5054408;28;20118;-74
2022/07/26 08:56:40;;;;;;;15.90;6.30;;;33.50;57.40;;;;;;5071783;28;20046;-72
2022/07/26 08:59:15;;;;;;;12.07;6.45;;;33.50;56.80;;;;;;5072381;28;20074;-68
2022/07/26 09:02:04;;;;;;;15.80;6.15;;;33.50;56.70;;;;;;5072138;28;20024;-71
2022/07/26 09:04:34;;;;;;;16.13;6.30;;;33.50;57.10;;;;;;5058420;28;20028;-72
2022/07/26 09:07:09;;;;;;;14.00;6.07;;;33.60;56.70;;;;;;5076474;28;20031;-69
2022/07/26 09:09:38;;;;;;;11.40;5.90;;;33.60;56.70;;;;;;5076359;28;20119;-72
2022/07/26 09:12:16;;;;;;;15.13;6.05;;;33.50;56.30;;;;;;5076276;28;20020;-68
2022/07/26 09:14:42;;;;;;;14.02;5.82;;;33.50;57.10;;;;;;5075988;28;20389;-69
2022/07/26 09:17:07;;;;;;;16.83;5.97;;;33.50;56.90;;;;;;5058207;28;20025;-70
2022/07/26 09:19:34;;;;;;;15.43;6.25;;;33.50;56.70;;;;;;5075852;28;20040;-76
2022/07/26 09:22:15;;;;;;;13.85;6.60;;;33.40;56.50;;;;;;5075760;28;20045;-70
2022/07/26 09:24:46;;;;;;;12.27;5.95;;;33.50;56.70;;;;;;5075756;28;20500;-70
2022/07/26 09:27:14;;;;;;;13.07;5.75;;;33.50;56.40;;;;;;5075807;28;20036;-70
2022/07/26 09:29:53;;;;;;;17.20;5.65;;;33.50;56.40;;;;;;5075594;28;20025;-69
2022/07/26 09:32:22;;;;;;;9.77;5.70;;;33.50;56.50;;;;;;5075348;28;20096;-67
2022/07/26 09:35:07;;;;;;;10.40;5.68;;;33.50;56.50;;;;;;5075576;28;20024;-68
2022/07/26 09:37:34;;;;;;;14.30;5.93;;;33.50;56.10;;;;;;5075485;28;20036;-70
2022/07/26 09:40:03;;;;;;;12.30;6.07;;;33.60;55.80;;;;;;5075555;28;20028;-70
2022/07/26 09:42:28;;;;;;;10.20;5.88;;;33.60;55.40;;;;;;5075527;28;20397;-69
2022/07/26 09:44:56;;;;;;;17.73;5.85;;;33.70;55.10;;;;;;5075686;28;20047;-72
2022/07/26 09:47:22;;;;;;;15.95;5.68;;;33.70;54.80;;;;;;5075291;28;20034;-71
2022/07/26 09:49:48;;;;;;;12.93;5.82;;;33.70;54.50;;;;;;5075075;28;20016;-69
2022/07/26 09:52:19;;;;;;;15.20;5.28;;;33.80;54.10;;;;;;5075468;28;20094;-68
2022/07/26 09:54:48;;;;;;;11.18;4.65;;;33.80;54.00;;;;;;5075216;28;20039;-71
2022/07/26 09:57:18;;;;;;;14.07;4.93;;;33.80;52.40;;;;;;5075206;28;20501;-70
2022/07/26 09:59:46;;;;;;;12.60;5.63;;;33.80;53.60;;;;;;5075300;28;20104;-71
2022/07/26 10:02:12;;;;;;;10.18;4.80;;;33.80;53.70;;;;;;5075138;28;20036;-68
2022/07/26 10:04:40;;;;;;;10.48;4.82;;;33.80;54.20;;;;;;5074930;28;20468;-69
2022/07/26 10:07:07;;;;;;;10.88;5.60;;;33.80;53.40;;;;;;5075107;28;20032;-69
2022/07/26 10:10:03;;;;;;;7.82;4.85;;;33.90;53.40;;;;;;5075409;28;20020;-71
2022/07/26 10:12:32;;;;;;;9.73;5.28;;;33.90;52.00;;;;;;5064576;28;20040;-71
2022/07/26 10:14:58;;;;;;;10.43;5.15;;;33.90;53.20;;;;;;5074592;28;20453;-72
2022/07/26 10:17:32;;;;;;;10.02;5.28;;;33.90;53.80;;;;;;5057262;28;20039;-75
2022/07/26 10:20:01;;;;;;;15.27;4.70;;;34.00;52.10;;;;;;5075508;28;20024;-69
2022/07/26 10:22:32;;;;;;;9.32;5.32;;;33.90;52.40;;;;;;5078770;28;20468;-74
2022/07/26 10:25:16;;;;;;;13.02;5.38;;;34.00;51.40;;;;;;5075018;28;20033;-70
2022/07/26 10:27:49;;;;;;;11.57;5.60;;;34.00;51.90;;;;;;5075235;28;20503;-71
2022/07/26 10:30:18;;;;;;;12.60;4.90;;;34.00;51.00;;;;;;5074933;28;20028;-70
2022/07/26 10:32:52;;;;;;;9.00;5.22;;;34.00;51.40;;;;;;5074752;28;20469;-72
2022/07/26 10:35:33;;;;;;;7.85;4.75;;;34.10;51.00;;;;;;5074445;28;20373;-72
2022/07/26 10:38:22;;;;;;;12.45;5.07;;;34.10;50.90;;;;;;5073891;28;20031;-70
2022/07/26 10:41:01;;;;;;;9.80;5.38;;;34.20;51.80;;;;;;5074643;28;20025;-71
2022/07/26 10:43:29;;;;;;;15.02;4.72;;;34.20;50.90;;;;;;5074852;28;20449;-73
2022/07/26 10:46:19;;;;;;;8.38;4.90;;;34.20;51.30;;;;;;5075021;28;20009;-70
2022/07/26 10:48:55;;;;;;;9.90;4.90;;;34.30;50.80;;;;;;5074321;28;20029;-71
2022/07/26 10:51:26;;;;;;;8.52;4.93;;;34.30;51.20;;;;;;5074491;28;20108;-71
2022/07/26 10:54:04;;;;;;;10.13;4.82;;;34.30;51.10;;;;;;5074422;28;20032;-72
2022/07/26 10:56:30;;;;;;;8.23;4.28;;;34.30;51.10;;;;;;5074044;28;20040;-73
2022/07/26 10:58:56;;;;;;;11.70;5.38;;;34.40;50.60;;;;;;5074757;28;20078;-71
2022/07/26 11:01:30;;;;;;;7.95;4.70;;;34.40;50.50;;;;;;5074389;28;20037;-69
2022/07/26 11:03:57;;;;;;;9.13;4.53;;;34.40;50.20;;;;;;5074239;28;20028;-72
2022/07/26 11:06:27;;;;;;;9.90;4.60;;;34.40;49.90;;;;;;5074134;28;20089;-72
2022/07/26 11:08:54;;;;;;;9.68;5.13;;;34.40;49.70;;;;;;5074264;28;20021;-69
2022/07/26 11:11:31;;;;;;;9.80;4.97;;;34.40;49.30;;;;;;5074118;28;20036;-76
2022/07/26 11:14:25;;;;;;;7.15;4.20;;;34.50;49.40;;;;;;5073704;28;20025;-71
2022/07/26 11:16:50;;;;;;;;;;;34.50;49.30;;;;;;5071584;28;20115;-75
2022/07/26 11:19:19;;;;;;;8.38;5.40;;;34.50;48.90;;;;;;5073753;28;19912;-76
2022/07/26 11:21:46;;;;;;;9.55;4.47;;;34.60;49.70;;;;;;5056247;28;20477;-74
2022/07/26 11:24:12;;;;;;;8.43;4.43;;;34.60;49.90;;;;;;5073557;28;20017;-75
2022/07/26 11:26:42;;;;;;;7.40;4.10;;;34.70;49.80;;;;;;5073716;28;20446;-73
2022/07/26 11:29:09;;;;;;;9.27;4.40;;;34.70;49.60;;;;;;5073939;28;20129;-71
2022/07/26 11:31:38;;;;;;;10.63;4.45;;;34.70;49.60;;;;;;5073816;28;20469;-70
2022/07/26 11:34:05;;;;;;;9.85;4.75;;;34.80;49.30;;;;;;5073555;28;20021;-74
2022/07/26 11:36:35;;;;;;;12.02;4.47;;;34.90;49.50;;;;;;5073272;28;20013;-70
2022/07/26 11:39:03;;;;;;;9.73;5.25;;;34.90;49.30;;;;;;5055108;28;20529;-73
2022/07/26 11:41:31;;;;;;;10.52;4.80;;;35.00;49.40;;;;;;5072996;28;20078;-75
2022/07/26 11:43:58;;;;;;;9.93;4.97;;;35.10;49.30;;;;;;5073300;28;20052;-70
2022/07/26 11:46:35;;;;;;;8.80;4.53;;;35.10;49.20;;;;;;5072823;28;20055;-68
2022/07/26 11:49:04;;;;;;;10.93;4.68;;;35.10;49.50;;;;;;5055247;28;20052;-71
2022/07/26 11:51:31;;;;;;;9.15;4.60;;;35.20;49.40;;;;;;5073429;28;20028;-70
2022/07/26 11:53:59;;;;;;;9.70;4.40;;;35.20;49.10;;;;;;5073341;28;20033;-69
2022/07/26 11:56:30;;;;;;;10.70;4.45;;;35.20;48.90;;;;;;5072834;28;20098;-71
2022/07/26 11:58:56;;;;;;;10.35;4.32;;;35.20;48.90;;;;;;5055389;28;20035;-67
2022/07/26 12:01:24;;;;;;;7.43;4.40;;;35.20;48.90;;;;;;5073033;28;20032;-68
2022/07/26 12:03:52;;;;;;;8.23;5.00;;;35.30;49.00;;;;;;5073052;28;20028;-69
2022/07/26 12:06:24;;;;;;;9.43;4.95;;;35.40;49.50;;;;;;5072907;28;20124;-77
2022/07/26 12:08:56;;;;;;;9.02;4.47;;;35.40;48.80;;;;;;5073052;28;20029;-76
2022/07/26 12:11:24;;;;;;;8.90;4.57;;;35.40;48.40;;;;;;5072691;28;20024;-71
2022/07/26 12:13:55;;;;;;;9.50;4.38;;;35.40;48.80;;;;;;5072686;28;20299;-70
2022/07/26 12:16:41;;;;;;;8.93;4.45;;;35.50;49.20;;;;;;5072762;28;20048;-70
2022/07/26 12:19:27;;;;;;;8.48;4.43;;;35.50;49.60;;;;;;5072808;28;20024;-68
2022/07/26 12:22:06;;;;;;;8.82;3.92;;;35.50;50.00;;;;;;5072770;28;20028;-69
2022/07/26 12:24:36;;;;;;;7.82;4.18;;;35.40;49.80;;;;;;5054765;28;20089;-68
2022/07/26 12:27:05;;;;;;;12.18;4.63;;;35.40;50.10;;;;;;5072825;28;20096;-69
2022/07/26 12:29:35;;;;;;;9.48;4.35;;;35.50;50.20;;;;;;5054727;28;20044;-69
2022/07/26 12:32:16;;;;;;;15.90;5.03;;;35.60;50.20;;;;;;5072733;28;20150;-67
2022/07/26 12:35:13;;;;;;;9.73;4.32;;;35.60;50.20;;;;;;5072702;28;20036;-71
2022/07/26 12:37:45;;;;;;;11.85;4.68;;;35.60;50.30;;;;;;5054400;28;20393;-70
2022/07/26 12:40:18;;;;;;;13.75;4.97;;;35.70;51.00;;;;;;5072655;28;20032;-72
2022/07/26 12:42:59;;;;;;;10.18;4.50;;;35.70;50.60;;;;;;5072490;28;20037;-71
2022/07/26 12:45:45;;;;;;;7.40;4.25;;;35.70;50.30;;;;;;5072385;28;20029;-70